Latest Weather Observations for Rottnest Island

IDW60901

Issued at 3:51 pm WST Wednesday 10 August 2022 (issued every 10 minutes, with the page automatically refreshed every 10 minutes)

About weather observations | Map of Perth area stations | Latest observations for Perth area | Other Formats
Station Details ID: 009193 Name: ROTTNEST ISLAND Lat: -32.01 Lon: 115.50 Height: 43.1 m
Data from the previous 72 hours. | See also: Recent months at Rottnest Island
Date/Time
WST
Temp
°C
App
Temp
°C
Dew
Point
°C
Rel
Hum
%
Delta-T
°C
Wind Press
QNH
hPa
Press
MSL
hPa
Rain since
9am
mm
Dir  Spd
km/h
Gust
km/h
Spd
kts
Gust
kts
10/03:30pm 14.9 12.3 9.3 69 2.9 S 13 20 7 11 1023.1 1023.1 0.0
10/03:00pm 14.6 11.0 8.5 67 3.1 S 17 20 9 11 1023.2 1023.2 0.0
10/02:30pm 15.3 12.3 9.2 67 3.1 SSW 15 20 8 11 1023.1 1023.1 0.0
10/02:00pm 15.1 11.3 7.6 61 3.7 SSW 17 20 9 11 1023.0 1023.0 0.0
10/01:30pm 15.0 11.2 7.5 61 3.7 S 17 20 9 11 1023.1 1023.1 0.0
10/01:00pm 15.1 12.1 7.9 62 3.6 S 13 17 7 9 1023.4 1023.4 0.0
10/12:30pm 14.6 11.0 8.3 66 3.2 SSE 17 20 9 11 1023.7 1023.7 0.0
10/12:00pm 14.4 12.1 9.0 70 2.7 SE 11 19 6 10 1023.9 1023.9 0.0
10/11:30am 14.0 11.7 9.0 72 2.5 SE 11 17 6 9 1024.0 1024.0 0.0
10/11:00am 14.0 12.2 9.4 74 2.3 SE 9 15 5 8 1024.0 1024.0 0.0
10/10:30am 13.6 11.4 9.5 76 2.1 SE 11 13 6 7 1024.2 1024.2 0.0
10/10:00am 12.7 9.7 9.2 79 1.8 SSE 15 20 8 11 1024.1 1024.1 0.0
10/09:30am 12.8 10.3 9.8 82 1.5 ESE 13 17 7 9 1023.8 1023.8 0.0
10/09:00am 12.5 10.7 10.7 89 0.9 ESE 11 15 6 8 1023.6 1023.6 20.0
10/08:30am 11.3 9.6 11.1 99 0.1 ESE 11 15 6 8 1023.2 1023.2 20.0
10/08:00am 10.9 8.7 10.9 100 0.0 E 13 17 7 9 1023.0 1023.0 20.0
10/07:30am 10.2 8.2 10.2 100 0.0 E 11 13 6 7 1022.5 1022.5 20.0
10/07:00am 10.4 7.7 10.2 99 0.1 E 15 19 8 10 1021.9 1021.9 20.0
10/06:30am 10.8 8.9 10.5 98 0.2 E 11 19 6 10 1021.8 1021.8 20.0
10/06:00am 10.7 7.8 9.6 93 0.6 ESE 15 20 8 11 1021.0 1021.0 20.0
10/05:30am 10.8 8.6 9.2 90 0.8 E 11 15 6 8 1020.6 1020.6 20.0
10/05:00am 10.8 8.8 10.3 97 0.3 SE 11 24 6 13 1020.2 1020.2 20.0
10/04:30am 10.5 8.5 10.3 99 0.1 E 11 15 6 8 1019.9 1019.9 20.0
10/04:00am 10.5 8.2 10.3 99 0.1 E 13 17 7 9 1019.9 1019.9 20.0
10/03:30am 10.8 7.7 10.3 97 0.3 E 17 26 9 14 1019.5 1019.5 20.0
10/03:00am 12.3 5.3 6.1 66 2.9 SSW 32 41 17 22 1019.2 1019.2 20.0
10/02:30am 12.0 6.1 9.2 83 1.4 S 30 37 16 20 1019.3 1019.3 20.0
10/02:00am 11.4 5.8 8.8 84 1.3 S 28 39 15 21 1019.5 1019.5 20.0
10/01:30am 11.3 5.2 9.9 91 0.7 SSW 32 43 17 23 1019.5 1019.5 20.0
10/01:17am 10.8 4.9 10.6 99 0.1 SW 32 46 17 25 1019.6 1019.6 19.8
10/01:00am 11.0 7.0 10.5 97 0.3 S 22 28 12 15 1019.4 1019.4 18.8
10/12:30am 10.7 4.2 10.5 99 0.1 SSW 35 54 19 29 1019.4 1019.4 18.8
10/12:24am 11.1 5.5 10.2 94 0.5 SSW 30 54 16 29 1019.3 1019.3 18.2
10/12:00am 11.8 6.0 10.9 94 0.5 S 32 43 17 23 1018.8 1018.8 17.8
 
Date/Time
WST
Temp
°C
App
Temp
°C
Dew
Point
°C
Rel
Hum
%
Delta-T
°C
Wind Press
QNH
hPa
Press
MSL
hPa
Rain since
9am
mm
Dir  Spd
km/h
Gust
km/h
Spd
kts
Gust
kts
09/11:43pm 11.4 5.8 8.8 84 1.3 S 28 48 15 26 1019.0 1019.0 17.6
09/11:30pm 11.3 6.2 9.2 87 1.1 S 26 35 14 19 1019.0 1019.0 17.6
09/11:18pm 11.1 5.8 8.5 84 1.3 S 26 32 14 17 1018.9 1018.9 17.6
09/11:00pm 11.0 3.6 8.2 83 1.4 SSW 37 57 20 31 1019.1 1019.1 17.6
09/10:31pm 11.8 4.6 7.7 76 2.0 SSW 35 59 19 32 1018.6 1018.6 17.6
09/10:30pm 11.9 4.6 7.0 72 2.4 SSW 35 46 19 25 1018.7 1018.7 17.6
09/10:16pm 11.7 5.8 8.9 83 1.4 S 30 52 16 28 1018.6 1018.6 17.6
09/10:00pm 11.7 3.6 8.7 82 1.5 S 41 57 22 31 1018.4 1018.4 17.6
09/09:51pm 12.0 4.3 8.5 79 1.7 SSW 39 57 21 31 1018.1 1018.1 17.6
09/09:38pm 11.6 4.2 6.9 73 2.2 SW 35 56 19 30 1018.5 1018.5 17.6
09/09:30pm 11.3 3.4 6.4 72 2.3 SW 37 48 20 26 1018.6 1018.6 17.6
09/09:02pm 10.8 4.6 7.7 81 1.5 SSW 30 48 16 26 1018.2 1018.2 17.2
09/09:00pm 10.7 4.3 7.0 78 1.8 SW 30 41 16 22 1018.4 1018.4 17.2
09/08:40pm 10.1 4.3 9.5 96 0.3 S 30 48 16 26 1018.3 1018.3 17.2
09/08:30pm 10.8 5.3 9.2 90 0.8 S 28 44 15 24 1018.1 1018.1 17.0
09/08:05pm 11.7 5.0 8.0 78 1.8 SSW 33 54 18 29 1017.4 1017.4 16.8
09/08:00pm 11.4 5.6 9.5 88 1.0 SSW 30 41 16 22 1017.5 1017.5 16.8
09/07:37pm 10.9 5.8 10.7 99 0.1 S 28 43 15 23 1017.1 1017.1 16.8
09/07:30pm 10.1 6.0 10.0 99 0.1 SSW 22 35 12 19 1017.3 1017.3 16.8
09/07:13pm 10.6 3.1 9.4 92 0.6 S 39 59 21 32 1017.0 1017.0 16.0
09/07:00pm 11.2 5.9 10.0 92 0.6 S 28 35 15 19 1016.4 1016.3 16.0
09/06:30pm 10.6 2.6 10.3 98 0.2 S 43 54 23 29 1016.0 1015.9 16.0
09/06:01pm 11.1 2.7 9.7 91 0.7 SSW 44 69 24 37 1015.4 1015.3 15.8
09/06:00pm 11.4 3.0 9.8 90 0.8 SSW 44 59 24 32 1015.6 1015.5 15.8
09/05:30pm 10.6 3.0 10.4 99 0.1 S 41 57 22 31 1015.3 1015.2 15.8
09/05:06pm 10.9 2.8 10.7 99 0.1 S 44 67 24 36 1014.8 1014.7 15.8
09/05:00pm 10.6 3.3 10.1 97 0.3 SSW 39 54 21 29 1015.1 1015.0 15.6
09/04:52pm 11.3 5.4 10.4 94 0.5 SW 32 54 17 29 1015.2 1015.1 15.4
09/04:30pm 10.9 3.6 10.1 95 0.4 SSW 39 46 21 25 1014.9 1014.8 15.2
09/04:04pm 11.8 2.3 6.5 70 2.5 SSW 46 65 25 35 1014.4 1014.3 15.0
09/04:00pm 11.8 2.9 7.5 75 2.1 SSW 44 59 24 32 1014.5 1014.4 15.0
09/03:49pm 11.2 4.9 8.9 86 1.1 SSW 32 52 17 28 1014.5 1014.4 15.0
09/03:37pm 10.4 0.8 8.0 85 1.2 SSW 48 65 26 35 1014.6 1014.5 15.0
09/03:30pm 11.0 1.5 8.4 84 1.3 S 48 65 26 35 1013.9 1013.8 15.0
09/03:12pm 11.3 3.2 7.2 76 2.0 SSW 39 57 21 31 1014.1 1014.0 15.0
09/03:00pm 11.9 3.8 6.8 71 2.4 SW 39 50 21 27 1013.9 1013.8 15.0
09/02:45pm 11.2 4.9 9.8 91 0.7 SW 33 52 18 28 1013.8 1013.7 15.0
09/02:39pm 10.7 4.5 9.9 95 0.4 SSW 33 46 18 25 1013.9 1013.8 15.0
09/02:37pm 10.2 3.1 9.4 95 0.4 S 37 56 20 30 1013.8 1013.7 15.0
09/02:30pm 10.1 0.8 9.3 95 0.4 SSW 48 63 26 34 1013.4 1013.3 15.0
09/02:21pm 8.2 -2.3 5.8 85 1.1 SSW 50 80 27 43 1013.2 1013.1 14.8
09/02:19pm 9.1 -0.8 4.7 74 2.0 SSW 46 80 25 43 1012.7 1012.6 14.4
09/02:18pm 11.8 2.9 6.9 72 2.3 SSW 43 80 23 43 1012.9 1012.8 14.2
09/02:06pm 13.0 4.6 5.4 60 3.6 SSW 39 57 21 31 1013.0 1012.9 14.2
09/02:00pm 11.7 1.4 4.9 63 3.1 SSW 48 61 26 33 1012.9 1012.8 14.2
09/01:30pm 13.1 3.8 5.8 61 3.4 SW 44 63 24 34 1012.8 1012.7 14.0
09/01:00pm 12.2 3.0 5.6 64 3.1 SW 43 61 23 33 1012.9 1012.8 14.0
09/12:51pm 12.0 4.9 7.9 76 2.0 WSW 35 54 19 29 1013.0 1012.9 14.0
09/12:42pm 12.1 4.8 7.4 73 2.3 SW 35 50 19 27 1013.1 1013.0 14.0
09/12:30pm 11.4 6.8 9.5 88 1.0 SW 24 37 13 20 1013.2 1013.1 14.0
09/12:00pm 10.8 8.2 10.8 100 0.0 SSE 15 20 8 11 1013.3 1013.2 14.0
09/11:30am 10.0 5.5 10.0 100 0.0 SSE 24 35 13 19 1013.2 1013.1 13.4
09/11:00am 9.8 7.3 9.8 100 0.0 E 13 19 7 10 1013.3 1013.2 13.4
09/10:30am 8.3 7.2 8.3 100 0.0 ESE 4 9 2 5 1013.7 1013.6 13.4
09/10:00am 9.2 4.9 9.2 100 0.0 SSE 22 33 12 18 1012.7 1012.6 6.0
09/09:30am 9.1 4.4 9.1 100 0.0 SE 24 37 13 20 1011.6 1011.5 0.2
09/09:06am 9.0 1.0 8.9 99 0.0 SSE 41 59 22 32 1011.6 1011.5 0.0
09/09:00am 8.6 -0.5 8.5 99 0.0 S 46 70 25 38 1011.0 1010.9 10.2
09/08:55am 8.6 -2.1 8.2 97 0.2 S 54 76 29 41 1011.1 1011.0 10.0
09/08:32am 10.5 -0.8 8.1 85 1.2 SW 57 80 31 43 1010.3 1010.2 10.0
09/08:30am 9.9 -1.8 7.8 87 1.0 SW 59 82 32 44 1010.8 1010.7 9.8
09/08:28am 9.5 -3.2 6.8 83 1.3 SW 63 82 34 44 1010.9 1010.8 9.8
09/08:23am 11.1 -0.7 7.4 78 1.8 SSW 59 82 32 44 1009.9 1009.8 9.6
09/08:03am 11.1 0.8 6.3 72 2.3 SW 50 70 27 38 1010.1 1010.0 9.6
09/08:00am 11.3 0.8 5.8 69 2.6 SW 50 65 27 35 1010.1 1010.0 9.6
09/07:30am 11.3 2.5 7.4 77 1.9 WSW 43 61 23 33 1009.8 1009.7 9.6
09/07:14am 10.4 1.6 7.1 80 1.6 SW 43 67 23 36 1009.5 1009.4 9.6
09/07:00am 10.2 -1.2 7.4 83 1.3 SW 57 78 31 42 1009.2 1009.1 9.6
09/06:37am 10.3 -0.4 8.2 87 1.0 WSW 54 76 29 41 1009.1 1009.0 9.6
09/06:30am 10.1 2.4 8.5 90 0.8 WSW 39 69 21 37 1009.3 1009.2 9.6
09/06:05am 9.6 0.2 7.0 84 1.2 SW 46 65 25 35 1009.0 1008.9 9.2
09/06:00am 9.6 -1.8 6.9 83 1.3 SW 56 74 30 40 1008.9 1008.8 9.2
09/05:57am 9.6 -2.4 6.7 82 1.4 SW 59 74 32 40 1008.6 1008.5 9.2
09/05:30am 9.5 -1.9 6.6 82 1.4 WSW 56 74 30 40 1009.1 1009.0 9.2
09/05:12am 9.7 0.4 7.5 86 1.0 SW 46 69 25 37 1008.8 1008.7 9.0
09/05:00am 9.6 1.1 8.7 94 0.4 SW 43 59 23 32 1009.0 1008.9 9.0
09/04:50am 8.9 -1.0 8.1 95 0.4 WSW 50 70 27 38 1009.2 1009.1 8.8
09/04:30am 8.1 -3.4 6.9 92 0.6 W 57 78 31 42 1009.3 1009.2 8.2
09/04:22am 9.3 -0.4 6.0 80 1.5 WSW 46 78 25 42 1008.9 1008.8 7.2
09/04:17am 10.6 3.1 7.8 83 1.4 WSW 37 78 20 42 1009.1 1009.0 7.2
09/04:00am 9.4 2.8 8.5 94 0.4 WSW 33 48 18 26 1008.8 1008.7 7.0
09/03:30am 9.4 1.0 7.5 88 0.9 WSW 41 59 22 32 1009.1 1009.0 7.0
09/03:07am 9.2 0.6 8.1 93 0.5 WSW 43 72 23 39 1009.2 1009.1 6.8
09/03:00am 9.9 2.3 9.1 95 0.4 SW 39 54 21 29 1009.0 1008.9 6.8
09/02:40am 9.5 -0.2 8.9 96 0.3 SW 50 72 27 39 1009.1 1009.0 6.8
09/02:38am 9.6 0.3 9.0 96 0.3 SW 48 72 26 39 1009.1 1009.0 6.8
09/02:33am 10.3 2.7 9.2 93 0.5 WSW 39 61 21 33 1009.2 1009.1 6.8
09/02:30am 10.1 2.5 8.9 92 0.6 WSW 39 52 21 28 1009.2 1009.1 6.8
09/02:07am 9.8 3.5 9.7 99 0.1 WSW 33 59 18 32 1009.3 1009.2 5.4
09/02:00am 9.3 0.7 8.8 97 0.2 SW 44 69 24 37 1009.5 1009.4 5.4
09/01:58am 9.2 -0.2 8.6 96 0.3 SW 48 69 26 37 1009.6 1009.5 5.2
09/01:44am 9.9 0.8 8.5 91 0.7 WSW 46 78 25 42 1009.3 1009.2 5.0
09/01:41am 10.1 1.8 7.9 86 1.1 WSW 41 78 22 42 1009.4 1009.3 5.0
09/01:35am 10.3 2.7 7.4 82 1.4 W 37 56 20 30 1009.6 1009.5 5.0
09/01:30am 10.1 1.3 7.2 82 1.4 W 43 57 23 31 1009.7 1009.6 5.0
09/01:00am 10.2 2.8 8.3 88 0.9 W 37 67 20 36 1009.8 1009.7 3.6
09/12:49am 8.9 -0.3 6.3 84 1.2 WSW 44 69 24 37 1010.1 1010.0 3.4
09/12:48am 8.8 -0.8 6.1 83 1.2 WSW 46 69 25 37 1010.3 1010.2 3.4
09/12:44am 9.5 0.3 6.4 81 1.4 WSW 44 69 24 37 1010.1 1010.0 1.6
09/12:41am 9.6 0.2 5.6 76 1.8 W 44 69 24 37 1010.1 1010.0 1.6
09/12:30am 11.8 2.4 5.4 65 3.0 WNW 44 63 24 34 1010.2 1010.1 1.6
09/12:00am 11.0 3.2 4.9 66 2.8 W 35 57 19 31 1010.2 1010.1 1.6
 
Date/Time
WST
Temp
°C
App
Temp
°C
Dew
Point
°C
Rel
Hum
%
Delta-T
°C
Wind Press
QNH
hPa
Press
MSL
hPa
Rain since
9am
mm
Dir  Spd
km/h
Gust
km/h
Spd
kts
Gust
kts
08/11:31pm 11.8 3.1 6.1 68 2.7 W 41 61 22 33 1010.7 1010.6 1.6
08/11:30pm 11.8 3.5 6.1 68 2.7 W 39 56 21 30 1010.7 1010.6 1.6
08/11:10pm 11.1 3.0 7.0 76 2.0 W 39 57 21 31 1011.1 1011.0 1.6
08/11:00pm 10.6 1.5 6.7 77 1.8 W 44 57 24 31 1011.2 1011.1 1.6
08/10:54pm 11.1 2.6 7.0 76 2.0 W 41 57 22 31 1011.3 1011.2 1.6
08/10:47pm 11.7 4.4 7.2 74 2.2 WNW 35 56 19 30 1011.1 1011.0 1.6
08/10:31pm 10.9 4.5 8.7 86 1.1 WSW 32 52 17 28 1011.5 1011.4 1.6
08/10:30pm 10.6 4.5 8.4 86 1.1 WSW 30 44 16 24 1011.4 1011.3 1.4
08/10:00pm 12.9 3.9 4.3 56 3.9 W 41 59 22 32 1011.5 1011.4 0.8
08/09:48pm 12.8 4.9 6.4 65 3.1 W 37 56 20 30 1011.7 1011.6 0.8
08/09:30pm 13.3 5.8 4.5 55 4.0 W 33 48 18 26 1011.7 1011.6 0.8
08/09:00pm 12.9 4.4 5.3 60 3.5 W 39 52 21 28 1011.9 1011.8 0.8
08/08:43pm 12.0 3.8 6.5 69 2.6 W 39 52 21 28 1011.9 1011.8 0.8
08/08:30pm 12.7 5.7 7.0 68 2.8 W 33 52 18 28 1011.9 1011.8 0.8
08/08:25pm 12.9 6.0 7.4 69 2.7 WNW 33 52 18 28 1011.8 1011.7 0.8
08/08:10pm 12.7 3.9 5.6 62 3.3 WNW 41 54 22 29 1012.0 1011.9 0.8
08/08:00pm 13.5 5.9 5.9 60 3.6 W 35 52 19 28 1012.2 1012.1 0.8
08/07:30pm 13.6 5.4 4.7 55 4.1 W 37 54 20 29 1012.1 1012.0 0.8
08/07:00pm 13.8 4.7 4.1 52 4.4 W 41 59 22 32 1011.9 1011.8 0.8
08/06:30pm 12.7 4.9 6.5 66 3.0 W 37 61 20 33 1011.7 1011.6 0.8
08/06:05pm 14.1 6.3 6.7 61 3.6 W 37 56 20 30 1011.4 1011.3 0.8
08/06:00pm 14.2 6.6 5.8 57 4.0 W 35 50 19 27 1011.4 1011.3 0.8
08/05:47pm 14.1 6.6 6.2 59 3.8 W 35 56 19 30 1011.3 1011.2 0.8
08/05:30pm 14.0 6.1 7.8 66 3.1 W 39 52 21 28 1011.3 1011.2 0.8
08/05:00pm 13.9 7.5 8.5 70 2.7 WSW 32 56 17 30 1011.1 1011.0 0.8
08/04:32pm 14.6 6.8 8.1 65 3.3 W 39 65 21 35 1010.8 1010.7 0.8
08/04:30pm 14.8 7.1 7.1 60 3.8 W 37 48 20 26 1010.9 1010.8 0.8
08/04:00pm 15.3 8.1 7.6 60 3.8 W 35 48 19 26 1010.8 1010.7 0.8
08/03:30pm 15.6 8.5 8.1 61 3.8 W 35 48 19 26 1010.8 1010.7 0.8
08/03:23pm 15.7 8.4 8.9 64 3.5 W 37 56 20 30 1010.8 1010.7 0.8
08/03:00pm 16.2 8.3 7.9 58 4.2 W 39 52 21 28 1010.7 1010.6 0.8
08/02:34pm 15.6 8.1 9.3 66 3.3 W 39 69 21 37 1010.6 1010.5 0.8
08/02:30pm 16.0 9.0 9.9 67 3.2 W 37 54 20 29 1010.6 1010.5 0.8
08/02:10pm 15.6 9.7 11.0 74 2.5 W 33 52 18 28 1010.5 1010.4 0.8
08/02:00pm 15.5 9.5 10.9 74 2.5 W 33 48 18 26 1010.4 1010.3 0.8
08/01:30pm 15.0 9.0 12.1 83 1.6 W 35 50 19 27 1010.6 1010.5 0.8
08/01:00pm 13.8 8.7 13.6 99 0.1 W 33 50 18 27 1011.1 1011.0 0.8
08/12:30pm 15.0 9.4 12.1 83 1.6 W 33 44 18 24 1011.5 1011.4 0.0
08/12:00pm 15.1 10.9 13.5 90 0.9 W 28 41 15 22 1011.9 1011.8 0.0
08/11:30am 14.7 9.5 14.5 99 0.1 W 35 46 19 25 1012.3 1012.2 0.0
08/11:08am 13.4 5.7 13.2 99 0.1 W 46 65 25 35 1012.9 1012.8 0.0
08/11:00am 13.6 4.6 12.7 94 0.5 W 52 69 28 37 1012.9 1012.8 0.0
08/10:49am 14.8 7.5 12.7 87 1.2 W 43 61 23 33 1012.7 1012.6 0.0
08/10:44am 15.5 7.1 12.4 82 1.7 WNW 48 72 26 39 1012.7 1012.6 0.0
08/10:33am 17.1 7.4 11.8 71 2.9 NW 54 72 29 39 1012.2 1012.1 0.0
08/10:30am 17.6 8.4 10.9 65 3.6 NW 50 67 27 36 1012.3 1012.2 0.0
08/10:00am 18.2 8.9 10.6 61 4.1 NW 50 61 27 33 1012.3 1012.2 0.0
08/09:30am 18.1 8.4 8.9 55 4.8 NW 50 65 27 35 1012.4 1012.3 0.0
08/09:09am 18.0 9.6 9.6 58 4.4 NW 44 63 24 34 1012.5 1012.4 0.0
08/09:00am 17.7 8.8 9.1 57 4.5 NW 46 59 25 32 1012.6 1012.5 0.4
08/08:30am 17.5 8.4 9.7 60 4.1 NW 48 59 26 32 1012.7 1012.6 0.4
08/08:00am 17.3 8.3 8.7 57 4.4 NW 46 61 25 33 1013.0 1012.9 0.4
08/07:30am 17.2 7.6 7.8 54 4.8 NW 48 63 26 34 1013.0 1012.9 0.4
08/07:03am 17.3 8.8 9.2 59 4.2 NW 44 63 24 34 1012.9 1012.8 0.4
08/07:00am 17.2 8.7 9.4 60 4.1 NNW 44 59 24 32 1012.9 1012.8 0.4
08/06:30am 17.0 9.1 7.9 55 4.6 NNW 39 59 21 32 1013.0 1012.9 0.4
08/06:27am 17.0 9.1 7.9 55 4.6 NNW 39 59 21 32 1012.7 1012.6 0.4
08/06:00am 16.5 9.2 7.2 54 4.6 NNW 35 46 19 25 1013.0 1012.9 0.4
08/05:30am 15.6 7.3 9.5 67 3.2 NW 43 56 23 30 1013.4 1013.3 0.4
08/05:00am 16.2 8.3 7.9 58 4.2 NNW 39 48 21 26 1013.5 1013.4 0.4
08/04:30am 16.2 9.3 7.4 56 4.4 NW 33 54 18 29 1013.7 1013.6 0.4
08/04:00am 15.9 8.4 6.3 53 4.7 NW 35 48 19 26 1014.0 1013.9 0.4
08/03:30am 15.6 7.3 6.1 53 4.6 NW 39 52 21 28 1014.5 1014.4 0.4
08/03:00am 15.3 9.0 7.6 60 3.8 NW 30 39 16 21 1014.8 1014.7 0.4
08/02:30am 15.3 8.2 6.6 56 4.2 NNW 33 43 18 23 1014.9 1014.8 0.4
08/02:00am 15.2 8.2 6.2 55 4.3 NNW 32 41 17 22 1015.2 1015.1 0.4
08/01:30am 14.9 8.2 7.5 61 3.7 NW 32 44 17 24 1015.8 1015.7 0.4
08/01:00am 15.0 9.3 6.8 58 4.0 NW 26 41 14 22 1016.1 1016.0 0.4
08/12:30am 15.2 9.4 6.2 55 4.4 NW 26 33 14 18 1016.3 1016.2 0.4
08/12:00am 15.1 9.6 6.1 55 4.3 NW 24 32 13 17 1016.4 1016.3 0.4
 
Date/Time
WST
Temp
°C
App
Temp
°C
Dew
Point
°C
Rel
Hum
%
Delta-T
°C
Wind Press
QNH
hPa
Press
MSL
hPa
Rain since
9am
mm
Dir  Spd
km/h
Gust
km/h
Spd
kts
Gust
kts
07/11:30pm 15.1 9.6 6.1 55 4.3 WNW 24 32 13 17 1016.6 1016.5 0.4
07/11:00pm 14.8 10.8 6.6 58 4.0 NW 17 20 9 11 1016.9 1016.8 0.4
07/10:30pm 15.0 9.4 5.5 53 4.5 NW 24 33 13 18 1017.1 1017.1 0.4
07/10:00pm 15.1 9.1 5.3 52 4.6 WNW 26 35 14 19 1017.3 1017.3 0.4
07/09:30pm 14.9 10.5 6.7 58 4.0 WNW 19 28 10 15 1017.5 1017.5 0.4
07/09:00pm 14.9 10.5 6.5 57 4.1 NW 19 24 10 13 1017.6 1017.6 0.4
07/08:30pm 15.0 10.0 6.3 56 4.2 WNW 22 30 12 16 1017.6 1017.6 0.4
07/08:00pm 14.3 12.1 8.0 66 3.1 NW 9 15 5 8 1017.6 1017.6 0.4
07/07:30pm 14.2 10.0 7.3 63 3.4 NW 19 33 10 18 1017.7 1017.7 0.4
07/07:00pm 14.4 10.8 6.7 60 3.7 W 15 20 8 11 1017.4 1017.4 0.4
07/06:30pm 13.9 9.8 6.0 59 3.8 NW 17 20 9 11 1016.9 1016.8 0.4
07/06:00pm 14.1 9.6 6.0 58 3.9 WNW 19 24 10 13 1016.8 1016.7 0.4
07/05:30pm 14.6 10.4 5.7 55 4.2 WNW 17 22 9 12 1016.6 1016.5 0.4
07/05:00pm 15.4 11.3 6.2 54 4.4 WNW 17 22 9 12 1016.5 1016.4 0.4
07/04:30pm 16.0 11.1 7.0 55 4.4 WNW 22 30 12 16 1016.6 1016.5 0.4
07/04:00pm 16.5 11.6 4.9 46 5.5 W 20 28 11 15 1016.5 1016.4 0.4

Latest Capital City Observations: Canberra | Sydney | Melbourne | Brisbane | Adelaide | Perth | Hobart | Darwin

Other formats

Comma delimited format used in spreadsheet applications
http://www.bom.gov.au/fwo/IDW60901/IDW60901.94602.axf

JavaScript Object Notation format (JSON) in row-major order
http://www.bom.gov.au/fwo/IDW60901/IDW60901.94602.json

Data quality

Most of these data are generated automatically and are frequently updated. Quality checks on data are not normally performed. It is possible for incorrect values to appear. Refer to information at About Latest Weather Observations and please check the disclaimer before using these data.